createdAt,value
2023-02-21T00:00:02.386Z,7.30
2023-02-21T00:02:22.027Z,7.31
2023-02-21T00:04:41.781Z,7.32
2023-02-21T00:07:04.529Z,7.30
2023-02-21T00:09:24.362Z,7.26
2023-02-21T00:11:44.077Z,7.26
2023-02-21T00:14:03.797Z,7.27
2023-02-21T00:16:24.095Z,7.30
2023-02-21T00:18:44.354Z,7.29
2023-02-21T00:21:04.580Z,7.25
2023-02-21T00:23:24.429Z,7.28
2023-02-21T00:25:44.783Z,7.28
2023-02-21T00:28:04.562Z,7.28
2023-02-21T00:30:26.060Z,7.27
2023-02-21T00:32:46.126Z,7.24
2023-02-21T00:35:06.234Z,7.25
2023-02-21T00:37:25.998Z,7.24
2023-02-21T00:43:01.141Z,7.23
2023-02-21T00:45:21.012Z,7.20
2023-02-21T00:47:40.758Z,7.21
2023-02-21T00:50:00.487Z,7.19
2023-02-21T00:52:20.231Z,7.19
2023-02-21T00:54:40.024Z,7.19
2023-02-21T00:56:59.829Z,7.19
2023-02-21T00:59:20.021Z,7.18
2023-02-21T01:01:39.855Z,7.18
2023-02-21T01:03:59.816Z,7.14
2023-02-21T01:06:19.707Z,7.11
2023-02-21T01:08:39.384Z,7.12
2023-02-21T01:10:59.767Z,7.12
2023-02-21T01:13:20.043Z,7.08
2023-02-21T01:15:39.990Z,7.10
2023-02-21T01:17:59.977Z,7.11
2023-02-21T01:20:20.455Z,7.10
2023-02-21T01:22:40.512Z,7.10
2023-02-21T01:25:00.895Z,7.06
2023-02-21T01:27:20.823Z,7.07
2023-02-21T01:29:40.509Z,7.06
2023-02-21T01:32:00.376Z,7.08
2023-02-21T01:34:20.582Z,7.09
2023-02-21T01:36:40.825Z,7.10
2023-02-21T01:39:01.107Z,7.06
2023-02-21T01:41:20.890Z,7.09
2023-02-21T01:43:42.696Z,7.07
2023-02-21T01:46:09.805Z,7.08
2023-02-21T01:48:35.508Z,7.04
2023-02-21T01:50:55.106Z,6.99
2023-02-21T01:53:14.950Z,7.02
2023-02-21T01:55:35.205Z,7.03
2023-02-21T01:57:57.460Z,7.04
2023-02-21T02:00:20.236Z,7.02
2023-02-21T02:02:52.152Z,7.03
2023-02-21T02:05:14.005Z,7.02
2023-02-21T02:07:34.232Z,7.02
2023-02-21T02:09:54.006Z,7.03
2023-02-21T02:12:24.825Z,7.03
2023-02-21T02:14:37.580Z,7.05
2023-02-21T02:16:46.967Z,6.99
2023-02-21T02:19:03.453Z,7.00
2023-02-21T02:21:25.029Z,7.02
2023-02-21T02:23:44.524Z,6.98
2023-02-21T02:26:07.757Z,7.00
2023-02-21T02:28:33.506Z,7.03
2023-02-21T02:31:15.752Z,7.00
2023-02-21T02:33:45.797Z,6.96
2023-02-21T02:35:56.106Z,7.02
2023-02-21T02:38:07.152Z,7.04
2023-02-21T02:40:39.310Z,7.02
2023-02-21T02:42:58.933Z,7.02
2023-02-21T02:45:06.803Z,7.02
2023-02-21T02:47:17.308Z,7.02
2023-02-21T02:49:23.572Z,7.01
2023-02-21T02:51:26.620Z,7.03
2023-02-21T02:53:30.154Z,7.05
2023-02-21T02:55:41.661Z,7.05
2023-02-21T02:57:48.664Z,7.03
2023-02-21T02:59:49.976Z,7.06
2023-02-21T03:02:20.631Z,7.05
2023-02-21T03:04:49.897Z,7.05
2023-02-21T03:07:02.707Z,7.00
2023-02-21T03:09:23.201Z,6.98
2023-02-21T03:11:26.791Z,7.04
2023-02-21T03:13:36.462Z,7.02
2023-02-21T03:16:04.040Z,7.06
2023-02-21T03:18:21.057Z,7.02
2023-02-21T03:20:24.495Z,7.00
2023-02-21T03:22:30.671Z,7.01
2023-02-21T03:24:34.422Z,7.04
2023-02-21T03:26:38.736Z,7.02
2023-02-21T03:28:41.302Z,7.02
2023-02-21T03:30:45.616Z,7.01
2023-02-21T03:32:51.829Z,7.01
2023-02-21T03:34:53.421Z,7.03
2023-02-21T03:36:55.706Z,7.05
2023-02-21T03:38:57.065Z,7.06
2023-02-21T03:40:58.630Z,7.02
2023-02-21T03:43:02.341Z,7.00
2023-02-21T03:45:03.909Z,7.00
2023-02-21T03:47:05.369Z,7.05
2023-02-21T03:49:06.770Z,7.01
2023-02-21T03:51:08.168Z,7.00
2023-02-21T03:53:10.325Z,7.04
2023-02-21T03:55:12.302Z,6.96
2023-02-21T03:57:13.705Z,6.99
2023-02-21T03:59:15.088Z,7.03
2023-02-21T04:01:17.186Z,7.06
2023-02-21T04:03:18.834Z,7.06
2023-02-21T04:05:20.199Z,7.04
2023-02-21T04:07:22.386Z,7.03
2023-02-21T04:09:25.736Z,7.04
2023-02-21T04:11:27.204Z,7.02
2023-02-21T04:13:28.626Z,7.02
2023-02-21T04:15:29.976Z,7.04
2023-02-21T04:17:31.397Z,7.07
2023-02-21T04:19:32.855Z,7.05
2023-02-21T04:21:34.326Z,7.03
2023-02-21T04:23:35.821Z,7.06
2023-02-21T04:25:37.204Z,7.07
2023-02-21T04:27:38.553Z,7.04
2023-02-21T04:29:39.942Z,7.02
2023-02-21T04:31:41.443Z,7.03
2023-02-21T04:33:43.378Z,7.01
2023-02-21T04:35:44.828Z,7.05
2023-02-21T04:37:46.533Z,7.06
2023-02-21T04:39:48.049Z,7.05
2023-02-21T04:41:49.449Z,7.08
2023-02-21T04:43:50.885Z,7.08
2023-02-21T04:45:52.337Z,7.09
2023-02-21T04:47:53.701Z,7.06
2023-02-21T04:49:55.188Z,7.08
2023-02-21T04:51:56.673Z,7.06
2023-02-21T04:53:58.086Z,7.06
2023-02-21T04:55:59.625Z,7.07
2023-02-21T04:58:01.139Z,7.10
2023-02-21T05:00:06.290Z,7.11
2023-02-21T05:02:08.534Z,7.07
2023-02-21T05:04:10.089Z,7.09
2023-02-21T05:06:17.676Z,7.07
2023-02-21T05:08:19.060Z,7.10
2023-02-21T05:10:20.478Z,7.08
2023-02-21T05:12:21.872Z,7.07
2023-02-21T05:14:23.494Z,7.09
2023-02-21T05:16:25.582Z,7.09
2023-02-21T05:18:28.281Z,7.09
2023-02-21T05:20:29.724Z,7.06
2023-02-21T05:22:31.150Z,7.07
2023-02-21T05:24:33.160Z,7.09
2023-02-21T05:26:36.955Z,7.09
2023-02-21T05:28:40.211Z,7.09
2023-02-21T05:30:41.730Z,7.10
2023-02-21T05:32:43.265Z,7.10
2023-02-21T05:34:46.850Z,7.12
2023-02-21T05:36:48.325Z,7.12
2023-02-21T05:38:55.429Z,7.10
2023-02-21T05:40:56.950Z,7.12
2023-02-21T05:42:58.354Z,7.13
2023-02-21T05:44:59.829Z,7.14
2023-02-21T05:47:02.358Z,7.11
2023-02-21T05:49:04.273Z,7.14
2023-02-21T05:51:05.769Z,7.14
2023-02-21T05:53:09.792Z,7.13
2023-02-21T05:55:11.844Z,7.15
2023-02-21T05:57:13.282Z,7.13
2023-02-21T05:59:16.616Z,7.12
2023-02-21T06:01:18.362Z,7.13
2023-02-21T06:03:19.827Z,7.13
2023-02-21T06:05:22.098Z,7.15
2023-02-21T06:07:23.495Z,7.13
2023-02-21T06:09:25.422Z,7.13
2023-02-21T06:11:29.226Z,7.15
2023-02-21T06:13:32.909Z,7.15
2023-02-21T06:15:34.411Z,7.13
2023-02-21T06:17:39.381Z,7.14
2023-02-21T06:19:40.735Z,7.15
2023-02-21T06:21:43.126Z,7.17
2023-02-21T06:23:45.005Z,7.17
2023-02-21T06:25:46.395Z,7.16
2023-02-21T06:27:47.900Z,7.15
2023-02-21T06:29:49.337Z,7.17
2023-02-21T06:31:57.596Z,7.17
2023-02-21T06:33:59.607Z,7.18
2023-02-21T06:36:06.066Z,7.19
2023-02-21T06:38:07.477Z,7.18
2023-02-21T06:40:09.388Z,7.19
2023-02-21T06:42:15.707Z,7.18
2023-02-21T06:44:17.456Z,7.18
2023-02-21T06:46:20.742Z,7.18
2023-02-21T06:48:22.122Z,7.19
2023-02-21T06:50:23.545Z,7.20
2023-02-21T06:52:24.965Z,7.20
2023-02-21T06:54:26.417Z,7.21
2023-02-21T06:56:27.978Z,7.21
2023-02-21T06:58:29.405Z,7.21
2023-02-21T07:00:30.824Z,7.16
2023-02-21T07:02:32.238Z,7.21
2023-02-21T07:04:33.672Z,7.22
2023-02-21T07:06:35.130Z,7.19
2023-02-21T07:08:36.613Z,7.19
2023-02-21T07:10:38.033Z,7.19
2023-02-21T07:12:40.005Z,7.20
2023-02-21T07:14:41.391Z,7.21
2023-02-21T07:16:42.749Z,7.20
2023-02-21T07:18:47.549Z,7.20
2023-02-21T07:20:49.580Z,7.23
2023-02-21T07:22:50.987Z,7.24
2023-02-21T07:24:53.702Z,7.23
2023-02-21T07:26:55.885Z,7.22
2023-02-21T07:28:57.348Z,7.25
2023-02-21T07:30:58.780Z,7.24
2023-02-21T07:33:00.263Z,7.25
2023-02-21T07:35:01.664Z,7.21
2023-02-21T07:37:03.296Z,7.23
2023-02-21T07:39:04.867Z,7.21
2023-02-21T07:41:06.278Z,7.24
2023-02-21T07:43:07.699Z,7.21
2023-02-21T07:45:11.166Z,7.17
2023-02-21T07:47:12.548Z,7.24
2023-02-21T07:49:13.988Z,7.25
2023-02-21T07:51:15.703Z,7.28
2023-02-21T07:53:17.960Z,7.22
2023-02-21T07:55:19.354Z,7.26
2023-02-21T07:57:20.826Z,7.27
2023-02-21T07:59:22.286Z,7.25
2023-02-21T08:01:26.017Z,7.34
2023-02-21T08:03:27.404Z,7.35
2023-02-21T08:05:28.895Z,7.33
2023-02-21T08:07:30.496Z,7.35
2023-02-21T08:09:33.257Z,7.37
2023-02-21T08:11:36.637Z,7.36
2023-02-21T08:13:38.190Z,7.38
2023-02-21T08:15:39.614Z,7.41
2023-02-21T08:17:41.015Z,7.47
2023-02-21T08:19:42.532Z,7.50
2023-02-21T08:21:48.817Z,7.51
2023-02-21T08:23:54.956Z,7.49
2023-02-21T08:25:56.378Z,7.52
2023-02-21T08:27:58.798Z,7.53
2023-02-21T08:30:00.245Z,7.54
2023-02-21T08:32:01.739Z,7.56
2023-02-21T08:34:03.862Z,7.57
2023-02-21T08:36:05.648Z,7.60
2023-02-21T08:38:08.406Z,7.55
2023-02-21T08:40:10.325Z,7.59
2023-02-21T08:42:12.803Z,7.57
2023-02-21T08:44:16.334Z,7.59
2023-02-21T08:46:17.978Z,7.55
2023-02-21T08:48:19.453Z,7.58
2023-02-21T08:50:22.882Z,7.53
2023-02-21T08:52:24.286Z,7.52
2023-02-21T08:54:25.667Z,7.58
2023-02-21T08:56:28.039Z,7.56
2023-02-21T08:58:29.414Z,7.62
2023-02-21T09:00:30.870Z,7.58
2023-02-21T09:02:32.811Z,7.63
2023-02-21T09:04:35.828Z,7.68
2023-02-21T09:06:37.233Z,7.63
2023-02-21T09:08:39.092Z,7.69
2023-02-21T09:10:47.261Z,7.60
2023-02-21T09:12:49.069Z,7.61
2023-02-21T09:14:50.474Z,7.56
2023-02-21T09:16:51.860Z,7.64
2023-02-21T09:18:55.996Z,7.63
2023-02-21T09:20:58.109Z,7.62
2023-02-21T09:22:59.529Z,7.63
2023-02-21T09:25:02.611Z,7.65
2023-02-21T09:27:04.493Z,7.64
2023-02-21T09:29:06.054Z,7.68
2023-02-21T09:31:07.423Z,7.58
2023-02-21T09:33:09.540Z,7.56
2023-02-21T09:35:13.849Z,7.57
2023-02-21T09:37:15.281Z,7.62
2023-02-21T09:39:17.907Z,7.67
2023-02-21T09:41:19.884Z,7.64
2023-02-21T09:43:31.486Z,7.67
2023-02-21T09:45:36.168Z,7.69
2023-02-21T09:47:39.239Z,7.68
2023-02-21T09:49:43.908Z,7.64
2023-02-21T09:51:45.805Z,7.63
2023-02-21T09:53:48.527Z,7.69
2023-02-21T09:55:53.538Z,7.67
2023-02-21T09:57:56.419Z,7.76
2023-02-21T09:59:57.857Z,7.75
2023-02-21T10:02:14.032Z,7.75
2023-02-21T10:04:35.783Z,7.80
2023-02-21T10:06:51.279Z,7.64
2023-02-21T10:09:11.045Z,7.78
2023-02-21T10:11:45.516Z,7.81
2023-02-21T10:13:56.833Z,7.74
2023-02-21T10:16:13.070Z,7.78
2023-02-21T10:18:33.138Z,7.81
2023-02-21T10:20:52.314Z,7.75
2023-02-21T10:22:56.319Z,7.85
2023-02-21T10:24:57.887Z,7.75
2023-02-21T10:27:05.824Z,7.82
2023-02-21T10:29:20.176Z,7.86
2023-02-21T10:31:31.296Z,7.84
2023-02-21T10:33:36.253Z,7.85
2023-02-21T10:35:38.974Z,7.89
2023-02-21T10:37:53.637Z,7.81
2023-02-21T10:40:20.598Z,7.86
2023-02-21T10:42:31.826Z,7.83
2023-02-21T10:44:35.778Z,7.90
2023-02-21T10:46:45.230Z,7.92
2023-02-21T10:48:50.298Z,7.97
2023-02-21T10:51:04.187Z,7.99
2023-02-21T10:53:06.690Z,7.92
2023-02-21T10:55:32.377Z,8.06
2023-02-21T10:57:41.146Z,8.07
2023-02-21T10:59:43.454Z,8.03
2023-02-21T11:01:46.503Z,8.09
2023-02-21T11:03:53.769Z,8.17
2023-02-21T11:05:58.581Z,8.07
2023-02-21T11:08:09.125Z,8.23
2023-02-21T11:10:32.982Z,8.32
2023-02-21T11:12:34.516Z,8.26
2023-02-21T11:14:35.996Z,8.26
2023-02-21T11:16:37.494Z,8.27
2023-02-21T11:18:38.958Z,8.39
2023-02-21T11:20:40.938Z,8.53
2023-02-21T11:22:45.560Z,8.47
2023-02-21T11:24:59.862Z,8.57
2023-02-21T11:27:01.272Z,8.61
2023-02-21T11:29:13.822Z,8.52
2023-02-21T11:31:30.144Z,8.53
2023-02-21T11:33:32.928Z,8.50
2023-02-21T11:35:47.973Z,8.49
2023-02-21T11:38:01.521Z,8.49
2023-02-21T11:40:05.791Z,8.48
2023-02-21T11:42:34.147Z,8.45
2023-02-21T11:44:43.115Z,8.48
2023-02-21T11:46:47.203Z,8.48
2023-02-21T11:49:01.312Z,8.56
2023-02-21T11:51:30.379Z,8.53
2023-02-21T11:53:40.387Z,8.56
2023-02-21T11:55:50.425Z,8.52
2023-02-21T11:57:58.080Z,8.57
2023-02-21T12:00:37.839Z,8.51
2023-02-21T12:03:14.800Z,8.56
2023-02-21T12:05:42.643Z,8.72
2023-02-21T12:08:23.791Z,8.70
2023-02-21T12:10:53.009Z,8.75
2023-02-21T12:13:12.648Z,8.76
2023-02-21T12:15:30.910Z,8.88
2023-02-21T12:17:49.560Z,8.93
2023-02-21T12:20:24.939Z,9.15
2023-02-21T12:22:53.558Z,9.29
2023-02-21T12:25:03.907Z,9.43
2023-02-21T12:27:28.582Z,9.73
2023-02-21T12:29:29.974Z,9.75
2023-02-21T12:32:05.468Z,10.05
2023-02-21T12:34:19.067Z,10.12
2023-02-21T12:36:36.260Z,10.29
2023-02-21T12:39:13.004Z,10.21
2023-02-21T12:41:40.613Z,10.11
2023-02-21T12:43:54.889Z,10.19
2023-02-21T12:46:17.264Z,10.12
2023-02-21T12:48:38.251Z,10.10
2023-02-21T12:50:43.774Z,10.19
2023-02-21T12:53:03.119Z,10.04
2023-02-21T12:55:22.034Z,10.28
2023-02-21T12:57:37.285Z,10.37
2023-02-21T12:59:52.358Z,10.26
2023-02-21T13:02:01.302Z,10.31
2023-02-21T13:04:57.309Z,10.36
2023-02-21T13:07:07.529Z,10.57
2023-02-21T13:09:28.076Z,10.73
2023-02-21T13:11:37.772Z,10.86
2023-02-21T13:13:39.329Z,10.74
2023-02-21T13:15:43.581Z,10.68
2023-02-21T13:17:55.648Z,10.80
2023-02-21T13:20:09.215Z,10.92
2023-02-21T13:23:07.396Z,10.91
2023-02-21T13:25:17.629Z,10.80
2023-02-21T13:27:37.932Z,10.95
2023-02-21T13:29:42.360Z,10.88
2023-02-21T13:31:45.879Z,10.67
2023-02-21T13:33:52.776Z,10.70
2023-02-21T13:35:56.629Z,10.78
2023-02-21T13:38:00.121Z,10.69
2023-02-21T13:40:16.503Z,10.64
2023-02-21T13:42:24.802Z,10.57
2023-02-21T13:44:48.610Z,10.30
2023-02-21T13:46:53.172Z,10.22
2023-02-21T13:49:32.069Z,10.29
2023-02-21T13:51:53.000Z,10.25
2023-02-21T13:54:11.326Z,9.94
2023-02-21T13:56:15.561Z,10.09
2023-02-21T13:58:18.854Z,10.17
2023-02-21T14:00:26.676Z,10.16
2023-02-21T14:02:32.746Z,10.03
2023-02-21T14:04:58.096Z,10.09
2023-02-21T14:06:59.660Z,9.98
2023-02-21T14:09:06.962Z,10.00
2023-02-21T14:11:10.229Z,9.97
2023-02-21T14:13:22.377Z,9.97
2023-02-21T14:15:23.974Z,9.90
2023-02-21T14:17:29.399Z,9.83
2023-02-21T14:19:30.832Z,9.88
2023-02-21T14:21:32.166Z,9.75
2023-02-21T14:23:45.475Z,9.79
2023-02-21T14:26:00.110Z,9.82
2023-02-21T14:28:02.123Z,9.75
2023-02-21T14:30:12.971Z,9.76
2023-02-21T14:32:14.562Z,9.69
2023-02-21T14:34:48.390Z,9.72
2023-02-21T14:36:52.074Z,9.76
2023-02-21T14:38:54.198Z,9.70
2023-02-21T14:41:07.903Z,9.71
2023-02-21T14:43:54.577Z,9.70
2023-02-21T14:46:27.048Z,9.65
2023-02-21T14:48:40.341Z,9.57
2023-02-21T14:51:14.105Z,9.62
2023-02-21T14:53:37.247Z,9.63
2023-02-21T14:55:50.787Z,9.51
2023-02-21T14:58:29.850Z,9.58
2023-02-21T15:01:02.672Z,9.51
2023-02-21T15:03:20.830Z,9.55
2023-02-21T15:05:30.062Z,9.55
2023-02-21T15:07:37.506Z,9.53
2023-02-21T15:09:38.944Z,9.48
2023-02-21T15:11:41.226Z,9.46
2023-02-21T15:13:42.658Z,9.42
2023-02-21T15:15:44.145Z,9.37
2023-02-21T15:17:59.122Z,9.42
2023-02-21T15:20:13.752Z,9.37
2023-02-21T15:22:25.301Z,9.37
2023-02-21T15:24:28.328Z,9.37
2023-02-21T15:26:31.833Z,9.37
2023-02-21T15:28:33.385Z,9.34
2023-02-21T15:30:41.220Z,9.34
2023-02-21T15:32:43.360Z,9.33
2023-02-21T15:34:47.215Z,9.26
2023-02-21T15:37:12.503Z,9.29
2023-02-21T15:39:26.885Z,9.28
2023-02-21T15:41:33.886Z,9.20
2023-02-21T15:43:59.074Z,9.25
2023-02-21T15:46:03.294Z,9.17
2023-02-21T15:48:05.109Z,9.20
2023-02-21T15:50:12.269Z,9.21
2023-02-21T15:52:32.163Z,9.15
2023-02-21T15:54:38.317Z,9.06
2023-02-21T15:56:39.780Z,9.09
2023-02-21T15:58:41.277Z,9.11
2023-02-21T16:00:46.219Z,9.07
2023-02-21T16:02:47.755Z,9.03
2023-02-21T16:04:53.102Z,9.02
2023-02-21T16:06:57.657Z,9.05
2023-02-21T16:09:06.799Z,9.01
2023-02-21T16:11:08.240Z,9.05
2023-02-21T16:13:10.686Z,9.05
2023-02-21T16:15:18.213Z,9.00
2023-02-21T16:17:24.618Z,8.90
2023-02-21T16:19:32.652Z,8.86
2023-02-21T16:21:35.273Z,8.89
2023-02-21T16:23:40.786Z,8.89
2023-02-21T16:25:55.827Z,8.72
2023-02-21T16:28:00.110Z,8.63
2023-02-21T16:30:04.109Z,8.60
2023-02-21T16:32:06.802Z,8.72
2023-02-21T16:34:14.308Z,8.71
2023-02-21T16:36:30.791Z,8.61
2023-02-21T16:38:32.241Z,8.59
2023-02-21T16:40:35.282Z,8.58
2023-02-21T16:42:36.690Z,8.53
2023-02-21T16:44:38.101Z,8.55
2023-02-21T16:46:39.537Z,8.54
2023-02-21T16:48:41.205Z,8.51
2023-02-21T16:50:42.668Z,8.52
2023-02-21T16:52:44.107Z,8.57
2023-02-21T16:54:45.519Z,8.49
2023-02-21T16:56:50.408Z,8.54
2023-02-21T16:58:56.576Z,8.49
2023-02-21T17:01:01.192Z,8.49
2023-02-21T17:03:02.686Z,8.49
2023-02-21T17:05:04.204Z,8.41
2023-02-21T17:07:09.581Z,8.34
2023-02-21T17:09:18.815Z,8.40
2023-02-21T17:11:20.417Z,8.35
2023-02-21T17:13:21.905Z,8.31
2023-02-21T17:15:23.744Z,8.25
2023-02-21T17:17:25.226Z,8.31
2023-02-21T17:19:26.673Z,8.29
2023-02-21T17:21:28.096Z,8.28
2023-02-21T17:23:30.195Z,8.27
2023-02-21T17:25:32.608Z,8.26
2023-02-21T17:27:34.008Z,8.31
2023-02-21T17:29:35.388Z,8.27
2023-02-21T17:31:36.856Z,8.29
2023-02-21T17:33:40.121Z,8.27
2023-02-21T17:35:41.570Z,8.27
2023-02-21T17:37:43.635Z,8.26
2023-02-21T17:39:45.032Z,8.24
2023-02-21T17:41:48.343Z,8.24
2023-02-21T17:43:50.256Z,8.17
2023-02-21T17:45:51.729Z,8.19
2023-02-21T17:47:56.273Z,8.16
2023-02-21T17:50:01.832Z,8.16
2023-02-21T17:52:04.332Z,8.16
2023-02-21T17:54:05.803Z,8.17
2023-02-21T17:56:07.240Z,8.15
2023-02-21T17:58:09.691Z,8.10
2023-02-21T18:00:24.571Z,8.10
2023-02-21T18:02:25.967Z,8.08
2023-02-21T18:04:28.759Z,8.10
2023-02-21T18:06:30.610Z,8.08
2023-02-21T18:08:32.011Z,8.09
2023-02-21T18:10:33.434Z,8.10
2023-02-21T18:12:34.936Z,8.08
2023-02-21T18:14:36.390Z,8.07
2023-02-21T18:16:37.797Z,8.01
2023-02-21T18:18:39.273Z,7.95
2023-02-21T18:20:40.672Z,7.97
2023-02-21T18:22:42.761Z,7.99
2023-02-21T18:24:44.136Z,7.94
2023-02-21T18:26:46.532Z,8.00
2023-02-21T18:28:47.949Z,7.96
2023-02-21T18:30:51.234Z,7.97
2023-02-21T18:32:52.853Z,7.97
2023-02-21T18:34:54.324Z,7.92
2023-02-21T18:36:55.830Z,7.92
2023-02-21T18:38:57.765Z,7.86
2023-02-21T18:41:01.756Z,7.88
2023-02-21T18:43:05.999Z,7.89
2023-02-21T18:45:07.821Z,7.91
2023-02-21T18:47:11.174Z,7.91
2023-02-21T18:49:13.830Z,7.90
2023-02-21T18:51:18.800Z,7.89
2023-02-21T18:53:20.736Z,7.88
2023-02-21T18:55:22.150Z,7.87
2023-02-21T18:57:24.206Z,7.85
2023-02-21T18:59:25.612Z,7.83
2023-02-21T19:01:27.220Z,7.80
2023-02-21T19:03:28.797Z,7.80
2023-02-21T19:05:30.252Z,7.78
2023-02-21T19:07:36.211Z,7.77
2023-02-21T19:09:37.654Z,7.75
2023-02-21T19:11:39.375Z,7.75
2023-02-21T19:13:41.184Z,7.74
2023-02-21T19:15:43.172Z,7.73
2023-02-21T19:17:44.902Z,7.67
2023-02-21T19:19:46.287Z,7.64
2023-02-21T19:21:47.764Z,7.64
2023-02-21T19:23:49.294Z,7.64
2023-02-21T19:25:50.716Z,7.65
2023-02-21T19:27:59.964Z,7.66
2023-02-21T19:30:01.404Z,7.67
2023-02-21T19:32:03.127Z,7.65
2023-02-21T19:34:05.006Z,7.65
2023-02-21T19:36:07.997Z,7.65
2023-02-21T19:38:09.445Z,7.66
2023-02-21T19:40:11.094Z,7.65
2023-02-21T19:42:12.521Z,7.66
2023-02-21T19:44:14.473Z,7.63
2023-02-21T19:46:24.464Z,7.63
2023-02-21T19:48:26.014Z,7.60
2023-02-21T19:50:27.478Z,7.58
2023-02-21T19:52:29.210Z,7.59
2023-02-21T19:54:31.492Z,7.54
2023-02-21T19:56:32.906Z,7.53
2023-02-21T19:58:34.391Z,7.52
2023-02-21T20:00:38.512Z,7.48
2023-02-21T20:02:39.960Z,7.47
2023-02-21T20:04:43.346Z,7.45
2023-02-21T20:06:44.752Z,7.40
2023-02-21T20:08:48.143Z,7.35
2023-02-21T20:10:49.654Z,7.36
2023-02-21T20:12:55.493Z,7.35
2023-02-21T20:14:56.926Z,7.33
2023-02-21T20:16:58.423Z,7.33
2023-02-21T20:18:59.806Z,7.35
2023-02-21T20:21:01.184Z,7.34
2023-02-21T20:23:03.540Z,7.36
2023-02-21T20:25:05.879Z,7.38
2023-02-21T20:27:07.274Z,7.39
2023-02-21T20:29:08.696Z,7.39
2023-02-21T20:31:13.424Z,7.38
2023-02-21T20:33:15.147Z,7.38
2023-02-21T20:35:16.537Z,7.35
2023-02-21T20:37:19.137Z,7.34
2023-02-21T20:39:28.272Z,7.29
2023-02-21T20:41:35.418Z,7.25
2023-02-21T20:43:37.410Z,7.23
2023-02-21T20:45:39.206Z,7.23
2023-02-21T20:47:40.709Z,7.23
2023-02-21T20:49:46.448Z,7.24
2023-02-21T20:51:48.497Z,7.26
2023-02-21T20:53:49.888Z,7.25
2023-02-21T20:55:51.307Z,7.25
2023-02-21T20:57:52.763Z,7.26
2023-02-21T20:59:54.157Z,7.26
2023-02-21T21:01:56.222Z,7.27
2023-02-21T21:03:57.799Z,7.30
2023-02-21T21:05:59.225Z,7.31
2023-02-21T21:08:01.540Z,7.31
2023-02-21T21:10:03.150Z,7.28
2023-02-21T21:12:09.058Z,7.28
2023-02-21T21:14:10.661Z,7.32
2023-02-21T21:16:12.602Z,7.32
2023-02-21T21:18:13.980Z,7.33
2023-02-21T21:20:18.927Z,7.33
2023-02-21T21:22:24.225Z,7.31
2023-02-21T21:24:25.615Z,7.32
2023-02-21T21:26:27.025Z,7.31
2023-02-21T21:28:31.775Z,7.31
2023-02-21T21:30:33.347Z,7.31
2023-02-21T21:32:35.002Z,7.33
2023-02-21T21:34:38.855Z,7.32
2023-02-21T21:36:45.125Z,7.32
2023-02-21T21:38:47.037Z,7.34
2023-02-21T21:40:48.523Z,7.36
2023-02-21T21:42:54.961Z,7.37
2023-02-21T21:44:56.881Z,7.35
2023-02-21T21:47:02.186Z,7.35
2023-02-21T21:49:06.185Z,7.37
2023-02-21T21:51:09.364Z,7.37
2023-02-21T21:53:11.102Z,7.38
2023-02-21T21:55:18.655Z,7.38
2023-02-21T21:57:22.711Z,7.37
2023-02-21T21:59:26.733Z,7.34
2023-02-21T22:01:29.918Z,7.31
2023-02-21T22:03:32.013Z,7.31
2023-02-21T22:05:35.319Z,7.31
2023-02-21T22:07:36.710Z,7.30
2023-02-21T22:09:38.948Z,7.32
2023-02-21T22:11:43.075Z,7.32
2023-02-21T22:13:44.455Z,7.32
2023-02-21T22:15:46.701Z,7.30
2023-02-21T22:17:49.004Z,7.32
2023-02-21T22:19:50.509Z,7.32
2023-02-21T22:21:56.776Z,7.32
2023-02-21T22:23:58.765Z,7.31
2023-02-21T22:26:00.934Z,7.32
2023-02-21T22:28:05.401Z,7.33
2023-02-21T22:30:09.067Z,7.30
2023-02-21T22:32:10.720Z,7.29
2023-02-21T22:34:22.990Z,7.32
2023-02-21T22:36:25.510Z,7.33
2023-02-21T22:38:26.887Z,7.31
2023-02-21T22:40:29.943Z,7.28
2023-02-21T22:42:31.817Z,7.28
2023-02-21T22:44:33.208Z,7.29
2023-02-21T22:46:41.508Z,7.31
2023-02-21T22:48:44.713Z,7.32
2023-02-21T22:50:47.601Z,7.30
2023-02-21T22:52:50.943Z,7.31
2023-02-21T22:54:52.908Z,7.33
2023-02-21T22:57:03.425Z,7.35
2023-02-21T22:59:08.803Z,7.36
2023-02-21T23:01:10.183Z,7.36
2023-02-21T23:03:14.409Z,7.34
2023-02-21T23:05:19.560Z,7.34
2023-02-21T23:07:24.520Z,7.35
2023-02-21T23:09:29.001Z,7.33
2023-02-21T23:11:31.272Z,7.33
2023-02-21T23:13:32.947Z,7.33
2023-02-21T23:15:35.355Z,7.32
2023-02-21T23:17:38.044Z,7.32
2023-02-21T23:19:39.811Z,7.29
2023-02-21T23:21:46.331Z,7.33
2023-02-21T23:23:47.699Z,7.32
2023-02-21T23:25:49.131Z,7.30
2023-02-21T23:27:56.019Z,7.32
2023-02-21T23:29:58.794Z,7.32
2023-02-21T23:32:09.397Z,7.33
2023-02-21T23:34:12.042Z,7.33
2023-02-21T23:36:13.521Z,7.31
2023-02-21T23:38:15.747Z,7.29
2023-02-21T23:40:20.382Z,7.30
2023-02-21T23:42:23.664Z,7.30
2023-02-21T23:44:25.049Z,7.28
2023-02-21T23:46:29.148Z,7.27
2023-02-21T23:48:32.548Z,7.27
2023-02-21T23:50:35.084Z,7.29
2023-02-21T23:52:37.252Z,7.27
2023-02-21T23:54:40.271Z,7.26
2023-02-21T23:56:41.765Z,7.25
2023-02-21T23:58:46.423Z,7.24
